Главная страница
METAR-TAF:

METAR-TAF

Аэропорты :

Нуакшот, Мавритания

широта: 18-18-36N, долгота: 015-58-11W, высота над уровнем моря: 3 м

Текущие метеонаблюдения

Эта сводка был подготовлена 1 час и 0 минут назад, в 20:30 UTC
Ветер 12 Узел от северный
Температура 30°C
Влажность 38%
Давление 1013 hPa
Видимость: 8000 м

METAR: GQNO 202030Z 35012KT 8000 NSC 30/14 Q1013 NOSIG

Время: 21:30 (21:30 UTC)

Прогноз

Эта сводка был подготовлена 4 часа и 30 минут назад, в 17:00 UTC
Прогноз действительный с 20-го 18 UTC до 21-го 24 UTC
Ветер 8 Узел от северо-восточный
Видимость: 6000 м
временами
С 21-го 09 UTC до 21-го 16 UTC
Ветер 12 Узел от восточный

TAF: GQNO 201700Z 2018/2124 04008KT 6000 NSC TEMPO 2109/2116 10012KT

Метеонаблюдения и прогнозы для более 4000 аэропортов (сводки METAR и TAF).

Имеющиеся станции представлены на карте желтыми и красными точками.

Чтобы увидеть название станции, наведите на нее мышь.

Затем щелкните, чтобы увидеть метеонаблюдения и метеопрогнозы.

Управление картой: чтобы увеличить масштаб, щелкните зеленые кнопки с черным крестиком; чтобы уменьшить масштаб, щелкните зеленую кнопку с тире; для просмотра соседних карт щелкайте зеленые стрелки.


METAR-TAF: